createdAt,value
2018-11-22T10:19:12.581Z,21
2018-11-22T10:29:16.189Z,22
2018-11-22T10:55:28.369Z,22.3
2018-11-22T11:09:37.867Z,22.3
2018-11-22T11:20:12.722Z,22.4
2018-11-22T11:30:27.223Z,22.3
2018-11-22T11:40:48.910Z,22.5
2018-11-22T11:50:52.645Z,22.4
2018-11-22T12:00:56.400Z,22.4
2018-11-22T12:11:00.150Z,22.4
2018-11-22T12:21:04.252Z,22.5
2018-11-22T12:31:08.219Z,22.4
2018-11-22T12:41:12.119Z,22.4
2018-11-22T12:51:18.105Z,22.5
2018-11-22T13:01:21.738Z,22.5
2018-11-22T13:11:25.372Z,22.5
2018-11-22T13:21:29.016Z,22.5
2018-11-22T13:32:21.344Z,22.5
2018-11-22T13:57:25.895Z,22.6
2018-11-22T15:26:53.716Z,22.8
2018-11-22T16:06:21.348Z,23.1
2018-11-22T16:17:57.685Z,23
2018-11-22T16:51:09.751Z,23
2018-11-22T17:17:34.622Z,23.1
2018-11-22T17:27:38.274Z,23.1
2018-11-22T17:37:41.834Z,23
2018-11-22T17:47:45.571Z,23
2018-11-22T17:57:49.197Z,23
2018-11-22T18:07:52.828Z,22.8
2018-11-22T18:17:56.438Z,23
2018-11-22T18:28:00.040Z,23
2018-11-22T18:38:03.608Z,23
2018-11-22T18:48:07.212Z,22.7
2018-11-22T18:58:10.801Z,22.6
2018-11-22T19:08:15.503Z,22.5
2018-11-22T19:18:19.173Z,22.4
2018-11-22T19:28:22.783Z,22.2
2018-11-22T19:38:26.373Z,22.1
2018-11-22T19:48:29.932Z,22.1
2018-11-22T19:58:33.671Z,22
2018-11-22T20:08:37.403Z,21.9
2018-11-22T20:18:40.970Z,21.8
2018-11-22T20:28:44.582Z,21.8
2018-11-22T20:38:48.143Z,21.7
2018-11-22T20:48:51.742Z,21.6
2018-11-22T20:58:55.284Z,21.6
2018-11-22T21:08:59.856Z,21.5
2018-11-22T21:19:03.503Z,21.5
2018-11-22T21:29:07.140Z,21.4
2018-11-22T21:39:10.777Z,21.3
2018-11-22T21:49:14.425Z,21.3
2018-11-22T21:59:18.096Z,21.2
2018-11-22T22:09:21.685Z,21.2
2018-11-22T22:19:25.238Z,21.1
2018-11-22T22:29:28.775Z,21.1
2018-11-22T22:39:32.402Z,21
2018-11-22T22:49:36.092Z,20.9
2018-11-22T22:59:39.756Z,20.9
2018-11-22T23:09:43.360Z,20.9
2018-11-22T23:19:47.076Z,20.8
2018-11-22T23:29:50.753Z,20.8
2018-11-22T23:39:54.357Z,20.8
2018-11-22T23:49:57.924Z,20.7
